Archer, Wyoming
Current Conditions -  °F | °C
As of 7:53 PM on Sunday 23 Nov 2014 (Local Time) from KCYS Reporting Station
Clear Clear  
Wind Chill: 14°   Ceiling: Unl
Heat Index: 25°   Visibility: 10mi
Dew Point: 12°   Wind: 13mph
Humidity: 58%   Direction: 320°NW
Pressure: 29.84"   Gusts: 23mph
Location:  41.4091°N, 104.861°W
Report Text: KCYS 240253Z 32011G20KT 10SM CLR M04/M11 A2984 RMK AO2 SLP139 T10391111 50001
Loading
Personal Weather Stations






























Interactive Weather Map New forecast layout! Learn more

10-Day Weather Forecast

Advertisements
Track Severe Weather on mobile